Time;durP1;ratioP1;P1;durP2;ratioP2;P2;SDS_P1;SDS_P2;PMS_P1;PMS_P2;Temp;Humidity;BMP_temperature;BMP_pressure;BME280_temperature;BME280_humidity;BME280_pressure;Samples;Min_cycle;Max_cycle;Signal;HPM_P1;HPM_P2
2023/06/20 00:01:31;;;;;;;4.28;3.60;;;;;;;;;;4976819;28;20038;-78
2023/06/20 00:03:57;;;;;;;4.38;4.05;;;;;;;;;;4979515;28;20058;-79
2023/06/20 00:06:22;;;;;;;5.18;4.78;;;;;;;;;;4979542;28;20093;-79
2023/06/20 00:08:48;;;;;;;9.90;4.97;;;;;;;;;;4978613;28;20101;-79
2023/06/20 00:11:14;;;;;;;4.10;3.80;;;;;;;;;;4977357;28;20337;-79
2023/06/20 00:13:42;;;;;;;4.65;4.28;;;;;;;;;;4951014;28;20049;-80
2023/06/20 00:16:08;;;;;;;4.10;3.80;;;;;;;;;;4960479;28;20045;-79
2023/06/20 00:18:34;;;;;;;4.82;4.40;;;;;;;;;;4969405;28;20030;-77
2023/06/20 00:20:59;;;;;;;5.28;4.43;;;;;;;;;;4952698;28;20042;-80
2023/06/20 00:23:24;;;;;;;4.90;3.53;;;;;;;;;;4938534;28;20226;-78
2023/06/20 00:25:50;;;;;;;5.15;4.60;;;;;;;;;;4954829;28;20526;-78
2023/06/20 00:28:18;;;;;;;4.65;4.35;;;;;;;;;;4964126;28;20463;-79
2023/06/20 00:30:44;;;;;;;113.95;13.48;;;;;;;;;;4970432;28;20054;-79
2023/06/20 00:33:10;;;;;;;5.00;4.47;;;;;;;;;;4956491;28;20038;-78
2023/06/20 00:35:37;;;;;;;4.88;4.47;;;;;;;;;;4969813;28;20049;-78
2023/06/20 00:38:02;;;;;;;4.80;4.40;;;;;;;;;;4950664;28;20031;-79
2023/06/20 00:40:28;;;;;;;4.50;4.20;;;;;;;;;;4966933;28;20035;-78
2023/06/20 00:42:54;;;;;;;4.72;4.32;;;;;;;;;;4977136;28;20125;-78
2023/06/20 00:45:32;;;;;;;4.65;4.35;;;;;;;;;;4978067;28;20046;-78
2023/06/20 00:48:00;;;;;;;4.47;4.07;;;;;;;;;;4976541;28;20442;-79
2023/06/20 00:50:27;;;;;;;4.28;3.97;;;;;;;;;;4961860;28;20114;-80
2023/06/20 00:53:05;;;;;;;5.32;4.60;;;;;;;;;;4949225;28;20041;-80
2023/06/20 00:55:33;;;;;;;4.70;4.30;;;;;;;;;;4956210;28;20119;-79
2023/06/20 00:57:59;;;;;;;4.95;4.45;;;;;;;;;;4959796;28;20046;-80
2023/06/20 01:00:26;;;;;;;5.10;4.47;;;;;;;;;;4954493;28;20050;-79
2023/06/20 01:03:09;;;;;;;4.25;3.95;;;;;;;;;;4958913;28;20303;-79
2023/06/20 01:05:36;;;;;;;5.70;5.10;;;;;;;;;;4949663;28;20760;-80
2023/06/20 01:08:07;;;;;;;6.30;4.03;;;;;;;;;;4961367;28;20113;-79
2023/06/20 01:10:41;;;;;;;5.95;5.38;;;;;;;;;;4978174;28;20058;-80
2023/06/20 01:13:15;;;;;;;5.00;4.35;;;;;;;;;;4948740;28;20069;-79
2023/06/20 01:16:01;;;;;;;4.78;4.43;;;;;;;;;;4956171;28;20043;-78
2023/06/20 01:18:54;;;;;;;4.60;4.20;;;;;;;;;;4951023;28;20045;-78
2023/06/20 01:21:23;;;;;;;4.35;3.67;;;;;;;;;;4959700;28;20129;-79
2023/06/20 01:23:57;;;;;;;4.80;4.45;;;;;;;;;;4978908;28;20105;-79
2023/06/20 01:26:33;;;;;;;3.90;3.60;;;;;;;;;;4977802;28;20154;-78
2023/06/20 01:29:09;;;;;;;4.72;4.32;;;;;;;;;;4967022;28;20038;-80
2023/06/20 01:31:37;;;;;;;4.40;4.00;;;;;;;;;;4961472;28;20046;-80
2023/06/20 01:34:08;;;;;;;4.30;4.00;;;;;;;;;;4969662;28;20046;-78
2023/06/20 01:36:42;;;;;;;5.60;5.20;;;;;;;;;;4954607;28;20039;-81
2023/06/20 01:39:15;;;;;;;5.45;4.43;;;;;;;;;;4974924;28;20045;-80
2023/06/20 01:41:44;;;;;;;4.60;4.20;;;;;;;;;;4958563;28;20043;-78
2023/06/20 01:44:14;;;;;;;5.05;4.65;;;;;;;;;;4962579;28;20047;-79
2023/06/20 01:46:39;;;;;;;3.85;3.55;;;;;;;;;;4950716;28;20546;-79
2023/06/20 01:49:06;;;;;;;3.58;3.10;;;;;;;;;;4976341;28;20126;-77
2023/06/20 01:51:32;;;;;;;4.60;4.20;;;;;;;;;;4961672;28;20394;-78
2023/06/20 01:54:02;;;;;;;3.92;3.63;;;;;;;;;;4950602;28;20485;-79
2023/06/20 01:56:28;;;;;;;4.22;3.92;;;;;;;;;;4971884;28;20123;-80
2023/06/20 01:58:55;;;;;;;4.78;4.38;;;;;;;;;;4974111;28;20045;-79
2023/06/20 02:01:23;;;;;;;4.53;4.13;;;;;;;;;;4959974;28;20053;-79
2023/06/20 02:03:49;;;;;;;3.90;3.60;;;;;;;;;;4977175;28;20085;-78
2023/06/20 02:06:16;;;;;;;3.55;3.25;;;;;;;;;;4966056;28;20095;-78
2023/06/20 02:08:42;;;;;;;4.40;4.10;;;;;;;;;;4975112;28;20234;-78
2023/06/20 02:11:08;;;;;;;3.72;3.42;;;;;;;;;;4959985;28;20378;-77
2023/06/20 02:13:36;;;;;;;5.10;4.60;;;;;;;;;;4975093;28;20298;-77
2023/06/20 02:16:04;;;;;;;4.72;4.20;;;;;;;;;;4963684;28;20147;-79
2023/06/20 02:18:31;;;;;;;3.80;3.50;;;;;;;;;;4960319;28;20117;-77
2023/06/20 02:21:01;;;;;;;6.07;4.93;;;;;;;;;;4946518;28;20038;-79
2023/06/20 02:23:28;;;;;;;4.20;3.90;;;;;;;;;;4953272;28;20034;-78
2023/06/20 02:25:57;;;;;;;4.03;3.72;;;;;;;;;;4957161;28;20039;-79
2023/06/20 02:28:24;;;;;;;4.05;3.75;;;;;;;;;;4957355;28;20047;-79
2023/06/20 02:30:52;;;;;;;4.80;4.32;;;;;;;;;;4941399;28;20042;-78
2023/06/20 02:33:20;;;;;;;4.28;3.88;;;;;;;;;;4934170;28;20077;-78
2023/06/20 02:35:47;;;;;;;5.03;4.45;;;;;;;;;;4975090;28;20042;-78
2023/06/20 02:38:13;;;;;;;4.45;4.13;;;;;;;;;;4960045;28;20031;-79
2023/06/20 02:40:38;;;;;;;5.15;4.65;;;;;;;;;;4960443;28;20034;-79
2023/06/20 02:43:04;;;;;;;4.57;4.18;;;;;;;;;;4975174;28;20140;-77
2023/06/20 02:45:30;;;;;;;3.88;3.53;;;;;;;;;;4976135;28;20452;-78
2023/06/20 02:48:17;;;;;;;4.15;3.85;;;;;;;;;;4961795;28;20448;-79
2023/06/20 02:51:00;;;;;;;4.80;4.25;;;;;;;;;;4962652;28;20081;-77
2023/06/20 02:54:07;;;;;;;4.97;4.47;;;;;;;;;;4960770;28;20141;-78
2023/06/20 02:56:36;;;;;;;4.43;4.13;;;;;;;;;;4954803;28;20051;-79
2023/06/20 02:59:04;;;;;;;4.65;4.25;;;;;;;;;;4970181;28;20051;-79
2023/06/20 03:01:32;;;;;;;4.30;3.90;;;;;;;;;;4957111;28;20063;-79
2023/06/20 03:04:02;;;;;;;7.00;4.50;;;;;;;;;;4956359;28;20034;-78
2023/06/20 03:06:28;;;;;;;3.65;3.38;;;;;;;;;;4957587;28;20034;-79
2023/06/20 03:08:56;;;;;;;3.90;3.60;;;;;;;;;;4943152;28;20062;-79
2023/06/20 03:11:22;;;;;;;4.85;4.47;;;;;;;;;;4941021;28;20042;-79
2023/06/20 03:13:48;;;;;;;4.35;4.00;;;;;;;;;;4957139;28;20035;-78
2023/06/20 03:16:13;;;;;;;4.07;3.78;;;;;;;;;;4940839;28;20035;-79
2023/06/20 03:18:39;;;;;;;3.60;3.30;;;;;;;;;;4958450;28;20143;-79
2023/06/20 03:21:05;;;;;;;5.85;5.35;;;;;;;;;;4950103;28;20039;-78
2023/06/20 03:23:31;;;;;;;3.97;3.67;;;;;;;;;;4959670;28;20506;-78
2023/06/20 03:25:58;;;;;;;3.85;3.55;;;;;;;;;;4974946;28;20093;-78
2023/06/20 03:28:24;;;;;;;4.50;4.10;;;;;;;;;;4978470;28;20052;-78
2023/06/20 03:30:50;;;;;;;5.03;4.53;;;;;;;;;;4978086;28;20034;-77
2023/06/20 03:33:15;;;;;;;4.20;3.90;;;;;;;;;;4978656;28;20137;-78
2023/06/20 03:35:44;;;;;;;3.88;3.58;;;;;;;;;;4952532;28;20093;-79
2023/06/20 03:38:09;;;;;;;4.03;3.63;;;;;;;;;;4972483;28;20034;-78
2023/06/20 03:40:35;;;;;;;4.47;4.15;;;;;;;;;;4960696;28;20061;-78
2023/06/20 03:43:00;;;;;;;4.22;3.92;;;;;;;;;;4979832;28;20050;-78
2023/06/20 03:45:25;;;;;;;5.00;4.50;;;;;;;;;;4980531;28;20402;-79
2023/06/20 03:47:51;;;;;;;4.47;4.07;;;;;;;;;;4978108;28;20119;-78
2023/06/20 03:50:16;;;;;;;4.88;4.47;;;;;;;;;;4969964;28;20034;-77
2023/06/20 03:52:42;;;;;;;4.57;4.18;;;;;;;;;;4971767;28;20047;-77
2023/06/20 03:55:08;;;;;;;4.03;3.72;;;;;;;;;;4961723;28;20094;-77
2023/06/20 03:57:33;;;;;;;3.58;3.28;;;;;;;;;;4945743;28;20532;-78
2023/06/20 03:59:58;;;;;;;4.10;3.70;;;;;;;;;;4960949;28;20046;-77
2023/06/20 04:02:24;;;;;;;4.43;4.03;;;;;;;;;;4960727;28;20399;-78
2023/06/20 04:04:52;;;;;;;3.97;3.67;;;;;;;;;;4951340;28;20553;-78
2023/06/20 04:09:49;;;;;;;4.53;4.13;;;;;;;;;;4977458;28;20592;-79
2023/06/20 04:12:15;;;;;;;4.93;4.10;;;;;;;;;;4984045;28;20034;-79
2023/06/20 04:14:40;;;;;;;5.28;4.05;;;;;;;;;;4991701;28;20031;-80
2023/06/20 04:17:06;;;;;;;7.38;5.18;;;;;;;;;;4991774;28;20048;-77
2023/06/20 04:19:32;;;;;;;4.78;4.13;;;;;;;;;;4986402;28;20037;-77
2023/06/20 04:21:58;;;;;;;5.72;4.35;;;;;;;;;;4975807;28;20053;-77
2023/06/20 04:24:24;;;;;;;6.55;4.75;;;;;;;;;;4980196;28;20034;-77
2023/06/20 04:26:49;;;;;;;4.05;3.75;;;;;;;;;;4964434;28;20043;-78
2023/06/20 04:29:14;;;;;;;7.63;5.40;;;;;;;;;;4981481;28;20038;-78
2023/06/20 04:31:40;;;;;;;5.55;4.60;;;;;;;;;;4975155;28;20692;-76
2023/06/20 04:34:05;;;;;;;5.53;4.97;;;;;;;;;;4975910;28;20038;-78
2023/06/20 04:36:33;;;;;;;6.43;4.90;;;;;;;;;;4986303;28;20033;-77
2023/06/20 04:38:59;;;;;;;4.40;4.00;;;;;;;;;;4972102;28;20041;-77
2023/06/20 04:41:25;;;;;;;4.22;3.80;;;;;;;;;;4981299;28;20112;-78
2023/06/20 04:43:50;;;;;;;6.72;5.38;;;;;;;;;;4978251;28;20035;-77
2023/06/20 04:46:16;;;;;;;5.20;4.70;;;;;;;;;;4968007;28;20527;-77
2023/06/20 04:48:42;;;;;;;7.70;6.10;;;;;;;;;;4983653;28;20040;-76
2023/06/20 04:51:11;;;;;;;8.13;6.00;;;;;;;;;;4978458;28;20045;-78
2023/06/20 04:53:37;;;;;;;4.10;3.70;;;;;;;;;;4983615;28;20042;-78
2023/06/20 04:56:03;;;;;;;6.05;4.30;;;;;;;;;;4975916;28;20048;-78
2023/06/20 04:58:29;;;;;;;6.90;5.35;;;;;;;;;;4971603;28;20034;-78
2023/06/20 05:00:58;;;;;;;6.93;5.30;;;;;;;;;;4983602;28;20042;-77
2023/06/20 05:03:24;;;;;;;6.35;5.32;;;;;;;;;;4982914;28;20064;-78
2023/06/20 05:05:50;;;;;;;5.50;5.00;;;;;;;;;;4978739;28;20068;-78
2023/06/20 05:08:16;;;;;;;4.43;4.03;;;;;;;;;;4977409;28;20117;-77
2023/06/20 05:10:41;;;;;;;5.90;5.00;;;;;;;;;;4985386;28;20534;-77
2023/06/20 05:13:07;;;;;;;6.80;5.15;;;;;;;;;;4978539;28;20399;-78
2023/06/20 05:15:32;;;;;;;5.90;5.13;;;;;;;;;;4982256;28;20056;-78
2023/06/20 05:17:57;;;;;;;6.70;5.90;;;;;;;;;;4975794;28;20605;-78
2023/06/20 05:20:23;;;;;;;6.38;5.75;;;;;;;;;;4984436;28;20103;-78
2023/06/20 05:22:49;;;;;;;6.55;5.90;;;;;;;;;;4988289;28;20361;-78
2023/06/20 05:25:14;;;;;;;5.65;5.15;;;;;;;;;;4977404;28;20038;-78
2023/06/20 05:27:40;;;;;;;7.65;6.60;;;;;;;;;;4947254;28;20069;-78
2023/06/20 05:30:06;;;;;;;6.60;5.47;;;;;;;;;;4976257;28;20145;-78
2023/06/20 05:32:31;;;;;;;6.30;5.68;;;;;;;;;;4969173;28;20449;-78
2023/06/20 05:34:57;;;;;;;6.30;5.70;;;;;;;;;;4986186;28;20041;-78
2023/06/20 05:37:22;;;;;;;8.13;5.80;;;;;;;;;;4981374;28;20042;-78
2023/06/20 05:39:48;;;;;;;6.15;5.55;;;;;;;;;;4975098;28;20046;-78
2023/06/20 05:42:13;;;;;;;5.75;5.25;;;;;;;;;;4964354;28;20043;-77
2023/06/20 05:44:38;;;;;;;7.18;5.60;;;;;;;;;;4957570;28;20049;-78
2023/06/20 05:47:04;;;;;;;8.20;5.88;;;;;;;;;;4984264;28;20050;-78
2023/06/20 05:49:30;;;;;;;6.65;6.05;;;;;;;;;;4979524;28;20042;-78
2023/06/20 05:51:57;;;;;;;7.55;5.82;;;;;;;;;;4974160;28;20038;-78
2023/06/20 05:54:22;;;;;;;7.28;6.57;;;;;;;;;;4974178;28;20134;-77
2023/06/20 05:56:51;;;;;;;10.75;6.22;;;;;;;;;;4989614;28;20149;-78
2023/06/20 05:59:17;;;;;;;6.35;5.72;;;;;;;;;;4970914;28;20038;-77
2023/06/20 06:01:42;;;;;;;7.43;6.47;;;;;;;;;;4961571;28;20042;-77
2023/06/20 06:04:07;;;;;;;9.25;7.00;;;;;;;;;;4980567;28;20040;-77
2023/06/20 06:06:33;;;;;;;8.77;7.40;;;;;;;;;;4986939;28;20511;-77
2023/06/20 06:08:59;;;;;;;4.88;4.38;;;;;;;;;;4976684;28;20040;-77
2023/06/20 06:11:25;;;;;;;8.90;7.65;;;;;;;;;;4971079;28;20038;-77
2023/06/20 06:13:51;;;;;;;8.55;7.60;;;;;;;;;;4975782;28;20145;-78
2023/06/20 06:16:17;;;;;;;8.68;7.78;;;;;;;;;;4982668;28;20129;-78
2023/06/20 06:18:43;;;;;;;9.50;7.60;;;;;;;;;;4987350;28;20038;-77
2023/06/20 06:21:09;;;;;;;10.70;8.13;;;;;;;;;;4981516;28;20035;-77
2023/06/20 06:23:34;;;;;;;9.85;8.25;;;;;;;;;;4964126;28;20038;-77
2023/06/20 06:26:00;;;;;;;8.95;7.85;;;;;;;;;;4981407;28;20513;-77
2023/06/20 06:28:27;;;;;;;7.85;6.25;;;;;;;;;;4988378;28;20042;-77
2023/06/20 06:30:54;;;;;;;7.82;7.05;;;;;;;;;;4987942;28;20053;-78
2023/06/20 06:33:19;;;;;;;8.50;7.22;;;;;;;;;;4967053;28;20046;-78
2023/06/20 06:35:45;;;;;;;5.72;5.22;;;;;;;;;;4973099;28;20030;-77
2023/06/20 06:38:11;;;;;;;9.43;7.55;;;;;;;;;;4984027;28;20049;-77
2023/06/20 06:40:37;;;;;;;8.20;7.38;;;;;;;;;;4989779;28;20584;-78
2023/06/20 06:43:02;;;;;;;6.13;5.63;;;;;;;;;;4987815;28;20034;-78
2023/06/20 06:45:28;;;;;;;9.00;7.50;;;;;;;;;;4960839;28;20105;-77
2023/06/20 06:47:54;;;;;;;6.05;5.45;;;;;;;;;;4975523;28;20141;-77
2023/06/20 06:50:20;;;;;;;10.57;7.50;;;;;;;;;;4964678;28;20046;-77
2023/06/20 06:52:45;;;;;;;7.95;6.70;;;;;;;;;;4969158;28;20526;-78
2023/06/20 06:55:10;;;;;;;7.60;6.90;;;;;;;;;;4979023;28;20594;-77
2023/06/20 06:57:36;;;;;;;7.80;6.57;;;;;;;;;;4974466;28;20034;-78
2023/06/20 07:00:01;;;;;;;7.10;6.30;;;;;;;;;;4988325;28;20171;-78
2023/06/20 07:02:27;;;;;;;10.10;9.10;;;;;;;;;;4988464;28;20041;-78
2023/06/20 07:04:53;;;;;;;9.75;8.75;;;;;;;;;;4978321;28;20046;-78
2023/06/20 07:07:18;;;;;;;5.50;4.97;;;;;;;;;;4981655;28;20054;-78
2023/06/20 07:09:44;;;;;;;9.98;7.53;;;;;;;;;;4972632;28;20046;-79
2023/06/20 07:12:10;;;;;;;8.15;6.93;;;;;;;;;;4992852;28;20121;-79
2023/06/20 07:14:35;;;;;;;8.65;7.78;;;;;;;;;;4978022;28;20065;-78
2023/06/20 07:17:00;;;;;;;7.20;6.30;;;;;;;;;;4985265;28;20280;-77
2023/06/20 07:19:26;;;;;;;8.45;6.80;;;;;;;;;;4974853;28;20042;-80
2023/06/20 07:21:51;;;;;;;8.15;7.43;;;;;;;;;;4986509;28;20037;-79
2023/06/20 07:24:16;;;;;;;7.82;6.97;;;;;;;;;;4975314;28;20034;-77
2023/06/20 07:26:42;;;;;;;8.65;6.90;;;;;;;;;;4987682;28;20170;-79
2023/06/20 07:29:07;;;;;;;4.63;4.22;;;;;;;;;;4981180;28;20066;-79
2023/06/20 07:31:33;;;;;;;11.75;7.82;;;;;;;;;;4980438;28;20430;-79
2023/06/20 07:33:58;;;;;;;7.00;6.28;;;;;;;;;;4965189;28;20038;-79
2023/06/20 07:36:23;;;;;;;10.18;6.82;;;;;;;;;;4992920;28;20041;-79
2023/06/20 07:38:49;;;;;;;5.32;4.78;;;;;;;;;;4974894;28;20476;-79
2023/06/20 07:41:14;;;;;;;7.32;6.63;;;;;;;;;;4979030;28;20062;-78
2023/06/20 07:43:39;;;;;;;7.32;6.72;;;;;;;;;;4983885;28;20042;-80
2023/06/20 07:46:05;;;;;;;7.57;6.85;;;;;;;;;;4975417;28;20062;-78
2023/06/20 07:48:30;;;;;;;5.50;5.00;;;;;;;;;;4950913;28;20039;-79
2023/06/20 07:50:56;;;;;;;5.75;5.25;;;;;;;;;;4962809;28;20051;-78
2023/06/20 07:53:23;;;;;;;9.52;6.53;;;;;;;;;;4978563;28;20034;-79
2023/06/20 07:55:48;;;;;;;6.18;5.60;;;;;;;;;;4963248;28;20073;-79
2023/06/20 07:58:14;;;;;;;5.10;4.60;;;;;;;;;;4981549;28;20050;-78
2023/06/20 08:00:40;;;;;;;5.85;5.35;;;;;;;;;;4978164;28;20042;-80
2023/06/20 08:03:06;;;;;;;9.07;8.20;;;;;;;;;;4934180;28;20043;-79
2023/06/20 08:05:31;;;;;;;8.93;8.15;;;;;;;;;;4963226;28;20043;-78
2023/06/20 08:07:57;;;;;;;6.63;6.07;;;;;;;;;;4967998;28;20054;-79
2023/06/20 08:10:22;;;;;;;6.07;5.53;;;;;;;;;;4970497;28;20077;-78
2023/06/20 08:12:47;;;;;;;7.35;6.65;;;;;;;;;;4964680;28;20078;-79
2023/06/20 08:15:13;;;;;;;7.35;6.68;;;;;;;;;;4970076;28;20161;-77
2023/06/20 08:17:38;;;;;;;9.07;7.93;;;;;;;;;;4974936;28;20057;-78
2023/06/20 08:20:09;;;;;;;6.88;6.28;;;;;;;;;;4983805;28;20042;-79
2023/06/20 08:22:35;;;;;;;8.90;8.10;;;;;;;;;;4968560;28;20043;-78
2023/06/20 08:25:01;;;;;;;8.23;7.47;;;;;;;;;;4956624;28;20486;-77
2023/06/20 08:27:26;;;;;;;8.30;7.10;;;;;;;;;;4982154;28;20038;-78
2023/06/20 08:29:51;;;;;;;10.48;9.32;;;;;;;;;;4971339;28;20360;-77
2023/06/20 08:32:17;;;;;;;10.63;9.60;;;;;;;;;;4985759;28;20119;-78
2023/06/20 08:34:42;;;;;;;12.60;9.52;;;;;;;;;;4968402;28;20140;-78
2023/06/20 08:37:08;;;;;;;11.20;10.10;;;;;;;;;;4966506;28;20557;-78
2023/06/20 08:39:34;;;;;;;10.10;9.10;;;;;;;;;;4965948;28;20042;-79
2023/06/20 08:42:00;;;;;;;6.03;5.28;;;;;;;;;;4969487;28;20043;-76
2023/06/20 08:44:25;;;;;;;8.70;7.90;;;;;;;;;;4953959;28;20057;-77
2023/06/20 08:46:57;;;;;;;9.82;8.90;;;;;;;;;;4965591;28;20049;-76
2023/06/20 08:49:25;;;;;;;5.32;4.85;;;;;;;;;;4981385;28;20042;-78
2023/06/20 08:51:53;;;;;;;7.18;6.57;;;;;;;;;;4980873;28;20138;-78
2023/06/20 08:54:20;;;;;;;9.30;8.25;;;;;;;;;;4980816;28;20859;-78
2023/06/20 08:56:48;;;;;;;6.07;5.57;;;;;;;;;;4955532;28;20125;-79
2023/06/20 08:59:14;;;;;;;7.43;6.40;;;;;;;;;;4979945;28;20034;-77
2023/06/20 09:01:40;;;;;;;7.65;6.95;;;;;;;;;;4974541;28;20817;-79
2023/06/20 09:04:05;;;;;;;6.93;6.32;;;;;;;;;;4970739;28;20046;-79
2023/06/20 09:06:39;;;;;;;7.35;6.65;;;;;;;;;;4961589;28;20047;-76
2023/06/20 09:09:16;;;;;;;6.75;5.97;;;;;;;;;;4959040;28;20399;-77
2023/06/20 09:11:57;;;;;;;6.32;5.75;;;;;;;;;;4975437;28;20101;-77
2023/06/20 09:14:26;;;;;;;;;;;;;;;;;;4986315;28;20038;-78
2023/06/20 09:16:51;;;;;;;6.07;5.28;;;;;;;;;;4977368;28;19946;-77
2023/06/20 09:19:17;;;;;;;6.25;5.72;;;;;;;;;;4980333;28;20038;-78
2023/06/20 09:21:42;;;;;;;5.13;4.65;;;;;;;;;;4965801;28;20630;-77
2023/06/20 09:24:08;;;;;;;4.63;4.22;;;;;;;;;;4981206;28;20042;-78
2023/06/20 09:26:34;;;;;;;5.75;5.25;;;;;;;;;;4982880;28;20042;-78
2023/06/20 09:29:14;;;;;;;5.70;5.10;;;;;;;;;;4979099;28;20042;-76
2023/06/20 09:31:45;;;;;;;5.57;4.85;;;;;;;;;;4965610;28;20038;-78
2023/06/20 09:34:14;;;;;;;;;;;;;;;;;;4952496;28;20579;-78
2023/06/20 09:36:40;;;;;;;5.03;4.60;;;;;;;;;;4945160;28;20358;-77
2023/06/20 09:39:22;;;;;;;6.40;5.38;;;;;;;;;;4967907;28;20041;-78
2023/06/20 09:41:50;;;;;;;5.25;4.80;;;;;;;;;;4970553;28;20146;-79
2023/06/20 09:44:19;;;;;;;6.07;5.38;;;;;;;;;;4976470;28;20065;-78
2023/06/20 09:46:45;;;;;;;5.30;4.80;;;;;;;;;;4962438;28;20097;-77
2023/06/20 09:49:15;;;;;;;6.45;5.35;;;;;;;;;;4978084;28;20046;-78
2023/06/20 09:51:54;;;;;;;5.53;5.13;;;;;;;;;;4968852;28;20097;-76
2023/06/20 09:54:40;;;;;;;5.32;4.93;;;;;;;;;;4971053;28;20039;-77
2023/06/20 09:57:10;;;;;;;4.90;4.50;;;;;;;;;;4964654;28;20034;-77
2023/06/20 09:59:41;;;;;;;6.63;5.10;;;;;;;;;;4963228;28;20046;-76
2023/06/20 10:02:08;;;;;;;5.15;4.65;;;;;;;;;;4976938;28;20057;-77
2023/06/20 10:04:39;;;;;;;5.15;4.53;;;;;;;;;;4975011;28;20118;-76
2023/06/20 10:07:05;;;;;;;5.25;4.38;;;;;;;;;;4973876;28;20130;-77
2023/06/20 10:09:30;;;;;;;5.05;4.53;;;;;;;;;;4965277;28;20149;-80
2023/06/20 10:11:56;;;;;;;5.03;4.50;;;;;;;;;;4964357;28;20038;-80
2023/06/20 10:14:22;;;;;;;6.20;4.32;;;;;;;;;;4978097;28;20435;-80
2023/06/20 10:16:51;;;;;;;4.80;4.28;;;;;;;;;;4979353;28;20046;-80
2023/06/20 10:19:17;;;;;;;4.13;3.63;;;;;;;;;;4977034;28;20219;-79
2023/06/20 10:21:57;;;;;;;4.18;3.75;;;;;;;;;;4961460;28;20045;-79
2023/06/20 10:24:30;;;;;;;3.53;3.20;;;;;;;;;;4937873;28;20047;-79
2023/06/20 10:26:59;;;;;;;4.10;3.80;;;;;;;;;;4983452;28;20040;-80
2023/06/20 10:29:26;;;;;;;4.10;3.80;;;;;;;;;;4974206;28;20073;-79
2023/06/20 10:32:09;;;;;;;4.38;3.97;;;;;;;;;;4980227;28;20034;-80
2023/06/20 10:34:40;;;;;;;4.13;3.83;;;;;;;;;;4954809;28;20038;-79
2023/06/20 10:37:27;;;;;;;4.18;3.78;;;;;;;;;;4969794;28;20034;-78
2023/06/20 10:39:57;;;;;;;4.32;4.03;;;;;;;;;;4973456;28;20038;-80
2023/06/20 10:42:35;;;;;;;4.60;4.20;;;;;;;;;;4969017;28;20560;-79
2023/06/20 10:45:24;;;;;;;4.43;3.95;;;;;;;;;;4978435;28;20465;-80
2023/06/20 10:47:50;;;;;;;3.92;3.63;;;;;;;;;;4935988;28;20047;-79
2023/06/20 10:50:16;;;;;;;4.82;3.58;;;;;;;;;;4978162;28;20046;-80
2023/06/20 10:52:42;;;;;;;3.95;3.65;;;;;;;;;;4977365;28;20030;-79
2023/06/20 10:55:24;;;;;;;3.70;3.40;;;;;;;;;;4977819;28;20097;-79
2023/06/20 10:57:51;;;;;;;3.22;2.92;;;;;;;;;;4960853;28;20037;-78
2023/06/20 11:00:18;;;;;;;2.83;2.63;;;;;;;;;;4936832;28;20114;-79
2023/06/20 11:02:49;;;;;;;3.40;3.10;;;;;;;;;;4961872;28;20034;-78
2023/06/20 11:05:14;;;;;;;4.78;3.38;;;;;;;;;;4977219;28;20034;-78
2023/06/20 11:07:53;;;;;;;3.00;2.80;;;;;;;;;;4977840;28;20061;-79
2023/06/20 11:10:26;;;;;;;3.67;3.42;;;;;;;;;;4951560;28;20534;-78
2023/06/20 11:12:52;;;;;;;3.92;3.63;;;;;;;;;;4958322;28;20043;-78
2023/06/20 11:15:22;;;;;;;3.80;3.50;;;;;;;;;;4976187;28;20039;-79
2023/06/20 11:17:48;;;;;;;3.88;3.65;;;;;;;;;;4973017;28;20088;-79
2023/06/20 11:20:13;;;;;;;3.20;3.00;;;;;;;;;;4975661;28;20034;-78
2023/06/20 11:22:39;;;;;;;4.18;3.60;;;;;;;;;;4975512;28;20539;-79
2023/06/20 11:25:07;;;;;;;3.38;3.17;;;;;;;;;;4950958;28;20045;-78
2023/06/20 11:27:33;;;;;;;4.60;4.22;;;;;;;;;;4959457;28;20096;-79
2023/06/20 11:29:59;;;;;;;4.10;3.80;;;;;;;;;;4975950;28;20038;-80
2023/06/20 11:32:24;;;;;;;3.60;3.40;;;;;;;;;;4960991;28;20046;-78
2023/06/20 11:34:59;;;;;;;4.53;4.13;;;;;;;;;;4975242;28;20058;-79
2023/06/20 11:37:25;;;;;;;4.32;4.03;;;;;;;;;;4956562;28;20457;-79
2023/06/20 11:39:52;;;;;;;5.78;4.68;;;;;;;;;;4921234;28;20428;-79
2023/06/20 11:42:18;;;;;;;3.50;3.20;;;;;;;;;;4958663;28;20530;-80
2023/06/20 11:44:43;;;;;;;4.40;4.10;;;;;;;;;;4969099;28;20042;-79
2023/06/20 11:47:09;;;;;;;4.90;4.28;;;;;;;;;;4960903;28;20096;-79
2023/06/20 11:49:39;;;;;;;6.00;4.45;;;;;;;;;;4978678;28;20038;-79
2023/06/20 11:52:05;;;;;;;4.18;3.78;;;;;;;;;;4949914;28;20820;-79
2023/06/20 11:54:49;;;;;;;4.60;4.30;;;;;;;;;;4974955;28;20113;-79
2023/06/20 11:57:26;;;;;;;4.45;4.10;;;;;;;;;;4968994;28;20030;-79
2023/06/20 11:59:53;;;;;;;3.88;3.58;;;;;;;;;;4978364;28;20034;-80
2023/06/20 12:02:19;;;;;;;5.45;5.00;;;;;;;;;;4956940;28;20034;-79
2023/06/20 12:04:56;;;;;;;5.60;5.20;;;;;;;;;;4978453;28;20041;-79
2023/06/20 12:07:21;;;;;;;5.63;5.13;;;;;;;;;;4978411;28;20146;-79
2023/06/20 12:09:47;;;;;;;4.22;3.92;;;;;;;;;;4980786;28;20106;-80
2023/06/20 12:12:12;;;;;;;5.47;5.03;;;;;;;;;;4981319;28;20048;-80
2023/06/20 12:14:38;;;;;;;5.43;5.03;;;;;;;;;;4984833;28;20585;-79
2023/06/20 12:17:03;;;;;;;5.30;4.80;;;;;;;;;;4944458;28;21294;-80
2023/06/20 12:19:29;;;;;;;5.70;5.22;;;;;;;;;;4980584;28;20038;-80
2023/06/20 12:21:54;;;;;;;5.90;5.40;;;;;;;;;;4964173;28;20178;-79
2023/06/20 12:24:24;;;;;;;5.78;5.38;;;;;;;;;;4964590;28;20053;-79
2023/06/20 12:26:51;;;;;;;5.35;4.95;;;;;;;;;;4979657;28;20040;-79
2023/06/20 12:29:17;;;;;;;5.70;5.20;;;;;;;;;;4970675;28;20038;-80
2023/06/20 12:31:43;;;;;;;5.78;5.38;;;;;;;;;;4983728;28;20045;-79
2023/06/20 12:34:08;;;;;;;6.15;5.55;;;;;;;;;;4979738;28;20043;-79
2023/06/20 12:36:34;;;;;;;3.60;3.38;;;;;;;;;;4978060;28;20076;-80
2023/06/20 12:39:00;;;;;;;5.43;5.07;;;;;;;;;;4978123;28;20030;-79
2023/06/20 12:41:33;;;;;;;6.05;5.45;;;;;;;;;;4946427;28;20050;-80
2023/06/20 12:43:59;;;;;;;41.85;6.90;;;;;;;;;;4949317;28;20498;-79
2023/06/20 12:46:24;;;;;;;6.00;5.50;;;;;;;;;;4976299;28;20537;-79
2023/06/20 12:48:49;;;;;;;5.13;4.72;;;;;;;;;;4961550;28;20054;-79
2023/06/20 12:51:15;;;;;;;6.75;6.07;;;;;;;;;;4980311;28;20042;-79
2023/06/20 12:53:40;;;;;;;5.70;5.30;;;;;;;;;;4984041;28;20073;-79
2023/06/20 12:56:06;;;;;;;6.97;5.60;;;;;;;;;;4982341;28;20048;-79
2023/06/20 12:58:33;;;;;;;7.07;6.43;;;;;;;;;;4968746;28;20037;-80
2023/06/20 13:00:59;;;;;;;6.50;5.85;;;;;;;;;;4964884;28;20035;-79
2023/06/20 13:03:25;;;;;;;6.60;6.07;;;;;;;;;;4947582;28;20081;-79
2023/06/20 13:05:50;;;;;;;6.68;6.18;;;;;;;;;;4979690;28;20046;-79
2023/06/20 13:08:18;;;;;;;6.75;6.25;;;;;;;;;;4962901;28;20042;-79
2023/06/20 13:10:44;;;;;;;7.40;6.80;;;;;;;;;;4964301;28;20046;-79
2023/06/20 13:13:10;;;;;;;6.00;5.50;;;;;;;;;;4962902;28;20038;-79
2023/06/20 13:15:35;;;;;;;4.47;4.10;;;;;;;;;;4963184;28;20048;-80
2023/06/20 13:18:03;;;;;;;6.78;6.03;;;;;;;;;;4977374;28;20150;-79
2023/06/20 13:20:29;;;;;;;6.95;6.35;;;;;;;;;;4976854;28;20495;-79
2023/06/20 13:22:56;;;;;;;6.90;6.32;;;;;;;;;;4962222;28;20058;-79
2023/06/20 13:25:22;;;;;;;7.07;6.47;;;;;;;;;;4953082;28;20510;-80
2023/06/20 13:27:49;;;;;;;6.53;5.93;;;;;;;;;;4979446;28;20050;-79
2023/06/20 13:30:15;;;;;;;6.68;6.07;;;;;;;;;;4979460;28;20599;-79
2023/06/20 13:32:44;;;;;;;7.35;6.70;;;;;;;;;;4952129;28;20039;-79
2023/06/20 13:35:10;;;;;;;5.38;5.05;;;;;;;;;;4944119;28;20677;-80
2023/06/20 13:37:37;;;;;;;4.75;4.40;;;;;;;;;;4951076;28;20031;-79
2023/06/20 13:40:07;;;;;;;6.82;6.32;;;;;;;;;;4959465;28;20063;-79
2023/06/20 13:42:41;;;;;;;7.10;6.50;;;;;;;;;;4971387;28;20035;-79
2023/06/20 13:45:12;;;;;;;7.47;6.75;;;;;;;;;;4970425;28;20066;-79
2023/06/20 13:47:39;;;;;;;5.60;5.20;;;;;;;;;;4943849;28;20046;-80
2023/06/20 13:50:05;;;;;;;7.18;6.57;;;;;;;;;;4969122;28;20048;-80
2023/06/20 13:52:31;;;;;;;6.70;6.10;;;;;;;;;;4975942;28;20046;-80
2023/06/20 13:54:56;;;;;;;6.97;6.38;;;;;;;;;;4979205;28;20053;-79
2023/06/20 13:57:21;;;;;;;5.55;5.05;;;;;;;;;;4976982;28;20771;-79
2023/06/20 13:59:48;;;;;;;6.18;5.68;;;;;;;;;;4964761;28;20030;-80
2023/06/20 14:02:13;;;;;;;7.10;6.50;;;;;;;;;;4977359;28;20043;-79
2023/06/20 14:04:42;;;;;;;5.95;5.45;;;;;;;;;;4950024;28;20045;-79
2023/06/20 14:07:08;;;;;;;7.50;6.82;;;;;;;;;;4976456;28;20042;-80
2023/06/20 14:09:33;;;;;;;5.70;5.30;;;;;;;;;;4985293;28;20671;-80
2023/06/20 14:12:01;;;;;;;7.57;6.93;;;;;;;;;;4959673;28;20045;-81
2023/06/20 14:14:28;;;;;;;6.68;6.18;;;;;;;;;;4985805;28;20046;-81
2023/06/20 14:16:54;;;;;;;7.30;6.70;;;;;;;;;;4974983;28;20270;-81
2023/06/20 14:19:20;;;;;;;6.70;6.15;;;;;;;;;;4966451;28;20038;-81
2023/06/20 14:21:46;;;;;;;7.78;7.07;;;;;;;;;;4976045;28;21302;-81
2023/06/20 14:24:12;;;;;;;5.80;5.30;;;;;;;;;;4960654;28;20479;-80
2023/06/20 14:26:39;;;;;;;6.97;6.47;;;;;;;;;;4959424;28;20027;-80
2023/06/20 14:29:05;;;;;;;8.38;7.68;;;;;;;;;;4960014;28;20034;-80
2023/06/20 14:31:32;;;;;;;7.38;6.78;;;;;;;;;;4951251;28;20108;-81
2023/06/20 14:33:57;;;;;;;7.72;7.03;;;;;;;;;;4966758;28;20038;-80
2023/06/20 14:36:25;;;;;;;6.85;6.25;;;;;;;;;;4976636;28;20176;-80
2023/06/20 14:38:50;;;;;;;7.57;6.97;;;;;;;;;;4977028;28;20034;-80
2023/06/20 14:41:15;;;;;;;8.30;7.60;;;;;;;;;;4955010;28;20572;-80
2023/06/20 14:43:41;;;;;;;7.35;6.85;;;;;;;;;;4974810;28;20034;-80
2023/06/20 14:46:06;;;;;;;7.28;6.75;;;;;;;;;;4950189;28;20034;-80
2023/06/20 14:48:33;;;;;;;8.32;7.55;;;;;;;;;;4958499;28;20085;-80